Time;durP1;ratioP1;P1;durP2;ratioP2;P2;SDS_P1;SDS_P2;PMS_P1;PMS_P2;Temp;Humidity;BMP_temperature;BMP_pressure;BME280_temperature;BME280_humidity;BME280_pressure;Samples;Min_cycle;Max_cycle;Signal;HPM_P1;HPM_P2
2022/09/08 00:00:32;;;;;;;1.23;0.70;;;;;;;21.72;56.49;96649.00;4972059;28;20248;-77
2022/09/08 00:03:01;;;;;;;0.90;0.82;;;;;;;21.60;57.43;96646.34;4978044;28;20653;-77
2022/09/08 00:05:27;;;;;;;1.00;0.95;;;;;;;21.58;57.84;96637.97;4969151;28;20340;-77
2022/09/08 00:07:55;;;;;;;1.58;0.82;;;;;;;21.70;57.19;96644.03;4956258;28;20264;-77
2022/09/08 00:10:21;;;;;;;1.23;0.82;;;;;;;21.65;57.89;96654.09;4955632;28;20195;-77
2022/09/08 00:12:47;;;;;;;1.70;0.80;;;;;;;21.46;59.01;96642.13;4972468;28;20222;-77
2022/09/08 00:15:12;;;;;;;1.35;0.82;;;;;;;21.32;59.84;96631.03;4953700;28;20611;-77
2022/09/08 00:17:38;;;;;;;1.45;0.90;;;;;;;21.25;60.32;96634.22;4969941;28;20156;-77
2022/09/08 00:20:04;;;;;;;0.82;0.70;;;;;;;21.23;60.43;96640.94;4934278;28;20252;-77
2022/09/08 00:22:30;;;;;;;0.65;0.65;;;;;;;21.21;60.33;96641.25;4952214;28;20708;-77
2022/09/08 00:24:55;;;;;;;1.30;0.80;;;;;;;21.13;60.95;96631.53;4937311;28;20215;-77
2022/09/08 00:27:20;;;;;;;2.60;0.80;;;;;;;21.06;61.88;96624.13;4955609;28;20685;-77
2022/09/08 00:29:46;;;;;;;1.42;1.33;;;;;;;20.96;61.84;96621.88;4956465;28;20878;-77
2022/09/08 00:32:11;;;;;;;0.95;0.85;;;;;;;20.90;62.40;96617.88;4941315;28;20331;-77
2022/09/08 00:34:36;;;;;;;1.58;0.85;;;;;;;20.95;62.04;96622.97;4972653;28;20763;-77
2022/09/08 00:37:02;;;;;;;1.20;0.90;;;;;;;21.06;61.34;96629.41;4963838;28;20350;-78
2022/09/08 00:39:27;;;;;;;1.17;1.02;;;;;;;21.04;61.64;96623.69;4924945;28;20278;-77
2022/09/08 00:41:55;;;;;;;2.08;1.00;;;;;;;20.92;62.76;96620.97;4950941;28;20231;-77
2022/09/08 00:44:35;;;;;;;1.60;0.80;;;;;;;20.81;62.61;96622.47;4936511;28;20508;-77
2022/09/08 00:47:01;;;;;;;0.93;0.82;;;;;;;20.90;62.61;96621.28;4962466;28;20206;-77
2022/09/08 00:49:28;;;;;;;1.90;0.95;;;;;;;20.84;62.99;96619.19;4937058;28;20199;-77
2022/09/08 00:51:59;;;;;;;1.25;1.08;;;;;;;20.80;62.97;96618.28;4954353;28;20201;-77
2022/09/08 00:54:25;;;;;;;0.80;0.80;;;;;;;20.76;63.16;96605.69;4970936;28;20248;-77
2022/09/08 00:56:52;;;;;;;1.80;1.20;;;;;;;20.71;63.28;96613.81;4948077;28;20662;-77
2022/09/08 00:59:19;;;;;;;1.05;0.90;;;;;;;20.74;63.08;96607.88;4950173;28;20177;-77
2022/09/08 01:01:45;;;;;;;2.28;1.00;;;;;;;20.72;63.59;96601.38;4963909;28;20053;-77
2022/09/08 01:04:11;;;;;;;1.20;1.10;;;;;;;20.73;63.67;96601.06;4953363;28;20207;-78
2022/09/08 01:13:04;;;;;;;1.48;0.90;;;;;;;20.65;63.98;96596.63;4971451;28;20707;-78
2022/09/08 01:15:29;;;;;;;1.77;1.00;;;;;;;20.66;64.54;96592.84;4970276;28;20379;-78
2022/09/08 01:17:55;;;;;;;1.92;1.13;;;;;;;20.60;65.13;96583.56;4966852;28;20785;-78
2022/09/08 01:20:28;;;;;;;1.20;1.02;;;;;;;20.59;64.58;96600.50;4950991;28;20669;-78
2022/09/08 01:23:05;;;;;;;1.52;1.42;;;;;;;20.54;64.44;96600.72;4953693;28;20277;-78
2022/09/08 01:25:31;;;;;;;1.52;1.13;;;;;;;20.65;64.79;96593.97;4988241;28;20200;-78
2022/09/08 01:28:04;;;;;;;1.75;1.30;;;;;;;20.43;65.28;96587.09;4974791;28;20207;-78
2022/09/08 01:30:30;;;;;;;2.90;1.25;;;;;;;20.53;65.13;96588.59;4967367;28;20195;-78
2022/09/08 01:32:55;;;;;;;1.25;1.15;;;;;;;20.55;65.14;96587.16;4964005;28;20198;-78
2022/09/08 01:35:32;;;;;;;1.27;0.93;;;;;;;20.40;65.25;96583.22;4965254;28;20275;-78
2022/09/08 01:37:57;;;;;;;2.97;1.25;;;;;;;20.52;64.97;96574.59;4952955;28;20199;-78
2022/09/08 01:40:23;;;;;;;1.27;1.17;;;;;;;20.56;64.86;96575.50;4970532;28;20617;-78
2022/09/08 01:42:49;;;;;;;2.42;1.30;;;;;;;20.50;65.44;96565.44;4971474;28;20690;-78
2022/09/08 01:45:14;;;;;;;3.35;1.25;;;;;;;20.45;65.33;96570.91;4982854;28;20203;-77
2022/09/08 01:47:40;;;;;;;1.63;1.35;;;;;;;20.39;65.25;96565.03;4981424;28;20697;-77
2022/09/08 01:50:06;;;;;;;1.63;1.50;;;;;;;20.38;65.29;96563.50;4986417;28;20209;-78
2022/09/08 01:52:31;;;;;;;1.95;1.50;;;;;;;20.35;65.36;96564.91;4939511;28;20165;-77
2022/09/08 01:54:56;;;;;;;2.60;1.38;;;;;;;20.36;65.34;96566.47;4969229;28;20625;-77
2022/09/08 01:57:22;;;;;;;1.75;1.23;;;;;;;20.38;64.93;96579.38;4980732;28;20201;-78
2022/09/08 01:59:47;;;;;;;1.90;1.38;;;;;;;20.43;64.74;96578.41;4941453;28;20289;-78
2022/09/08 02:02:12;;;;;;;1.27;1.17;;;;;;;20.45;64.34;96594.72;4970882;28;20251;-76
2022/09/08 02:04:38;;;;;;;1.50;1.40;;;;;;;20.48;64.30;96600.13;4969831;28;20165;-77
2022/09/08 02:07:03;;;;;;;1.40;1.30;;;;;;;20.52;64.40;96601.03;4965435;28;20286;-77
2022/09/08 02:09:28;;;;;;;2.22;1.10;;;;;;;20.58;64.11;96604.28;4949828;28;20288;-77
2022/09/08 02:11:54;;;;;;;1.85;1.23;;;;;;;20.61;64.26;96614.19;4945526;28;20215;-76
2022/09/08 02:14:20;;;;;;;1.67;1.30;;;;;;;20.52;64.22;96618.78;4985944;28;20194;-77
2022/09/08 02:16:45;;;;;;;1.30;1.17;;;;;;;20.44;65.01;96622.25;4950886;28;20108;-77
2022/09/08 02:19:12;;;;;;;1.52;1.13;;;;;;;20.38;64.89;96622.44;4970497;28;20206;-76
2022/09/08 02:21:37;;;;;;;1.23;0.95;;;;;;;20.38;64.92;96625.09;4950440;28;20207;-77
2022/09/08 02:24:04;;;;;;;3.08;1.42;;;;;;;20.34;64.73;96616.25;4949668;28;20676;-77
2022/09/08 02:26:30;;;;;;;1.60;1.50;;;;;;;20.30;65.32;96615.34;4935308;28;20275;-76
2022/09/08 02:28:56;;;;;;;3.90;2.42;;;;;;;20.25;65.56;96620.03;4985847;28;20277;-76
2022/09/08 02:31:24;;;;;;;1.77;1.17;;;;;;;20.31;65.27;96618.78;4957878;28;20642;-77
2022/09/08 02:33:50;;;;;;;2.42;1.70;;;;;;;20.39;64.96;96618.72;4949840;28;20247;-77
2022/09/08 02:36:16;;;;;;;1.30;1.20;;;;;;;20.42;65.15;96633.16;4968897;28;20274;-76
2022/09/08 02:38:41;;;;;;;3.22;1.75;;;;;;;20.43;65.35;96636.59;4965301;28;20181;-77
2022/09/08 02:41:07;;;;;;;3.83;1.77;;;;;;;20.34;65.55;96637.41;4931447;28;20188;-76
2022/09/08 02:43:33;;;;;;;3.45;1.88;;;;;;;20.35;65.78;96633.66;4931089;28;20215;-77
2022/09/08 02:46:06;;;;;;;3.38;1.33;;;;;;;20.15;66.13;96631.75;4964878;28;20203;-78
2022/09/08 02:48:32;;;;;;;4.07;2.17;;;;;;;20.25;66.09;96633.25;4963738;28;20714;-78
2022/09/08 02:50:59;;;;;;;4.40;1.92;;;;;;;20.16;66.45;96628.03;4948914;28;20360;-80
2022/09/08 02:53:24;;;;;;;3.33;2.00;;;;;;;20.08;67.02;96616.41;4925864;28;20211;-80
2022/09/08 02:55:50;;;;;;;2.92;1.67;;;;;;;20.05;66.77;96610.97;4949088;28;20110;-80
2022/09/08 02:58:15;;;;;;;3.75;2.15;;;;;;;20.03;67.98;96613.94;4966631;28;20238;-80
2022/09/08 03:00:41;;;;;;;4.25;2.10;;;;;;;20.02;67.53;96605.25;4948562;28;20235;-79
2022/09/08 03:03:06;;;;;;;2.97;2.13;;;;;;;20.10;67.53;96600.22;4963892;28;20326;-79
2022/09/08 03:05:32;;;;;;;2.58;1.85;;;;;;;20.15;67.42;96594.75;4963015;28;20195;-79
2022/09/08 03:07:58;;;;;;;3.20;1.80;;;;;;;20.16;67.62;96593.66;4949609;28;20199;-79
2022/09/08 03:10:24;;;;;;;3.25;2.42;;;;;;;20.15;67.81;96597.38;4968398;28;20240;-79
2022/09/08 03:12:53;;;;;;;2.28;1.67;;;;;;;20.07;67.71;96598.25;4950956;28;20269;-79
2022/09/08 03:15:20;;;;;;;2.75;1.95;;;;;;;20.22;67.19;96602.97;4967874;28;20697;-78
2022/09/08 03:17:45;;;;;;;2.97;1.80;;;;;;;20.11;68.00;96593.84;4951727;28;20793;-78
2022/09/08 03:20:11;;;;;;;4.65;1.90;;;;;;;20.15;68.15;96597.38;4934346;28;20275;-78
2022/09/08 03:22:36;;;;;;;2.40;1.70;;;;;;;20.14;67.86;96595.84;4966773;28;20183;-79
2022/09/08 03:25:03;;;;;;;4.18;1.95;;;;;;;20.15;68.07;96605.31;4967764;28;20191;-79
2022/09/08 03:27:28;;;;;;;4.07;2.00;;;;;;;20.08;68.34;96597.13;4962722;28;20270;-78
2022/09/08 03:29:54;;;;;;;2.75;1.70;;;;;;;20.10;68.31;96592.28;4966899;28;20742;-78
2022/09/08 03:32:20;;;;;;;2.03;1.83;;;;;;;20.14;68.44;96614.34;4967622;28;20168;-79
2022/09/08 03:34:45;;;;;;;3.20;2.35;;;;;;;20.14;68.31;96611.72;4951111;28;20664;-78
2022/09/08 03:37:10;;;;;;;2.85;2.17;;;;;;;20.00;68.94;96607.44;4968090;28;20289;-78
2022/09/08 03:39:36;;;;;;;2.28;2.03;;;;;;;19.95;69.01;96618.19;4972974;28;20153;-78
2022/09/08 03:42:02;;;;;;;2.50;2.03;;;;;;;19.96;68.95;96619.75;4931678;28;20204;-78
2022/09/08 03:44:27;;;;;;;2.25;1.90;;;;;;;19.95;68.89;96618.19;4974837;28;20211;-78
2022/09/08 03:46:53;;;;;;;2.67;2.10;;;;;;;19.93;69.09;96611.66;4963523;28;20320;-78
2022/09/08 03:49:19;;;;;;;3.35;2.47;;;;;;;19.88;69.08;96610.00;4975549;28;20238;-78
2022/09/08 03:51:44;;;;;;;3.67;2.00;;;;;;;19.85;69.64;96613.25;4945911;28;20238;-78
2022/09/08 03:56:54;;;;;;;2.70;2.17;;;;;;;19.88;69.24;96582.78;4983948;28;20252;-78
2022/09/08 03:59:19;;;;;;;5.30;2.67;;;;;;;19.87;69.09;96586.53;4977617;28;20224;-79
2022/09/08 04:01:44;;;;;;;3.25;2.17;;;;;;;19.87;68.91;96581.25;4947566;28;20637;-78
2022/09/08 04:04:10;;;;;;;2.15;1.90;;;;;;;19.92;68.56;96596.91;4930964;28;20624;-78
2022/09/08 04:06:35;;;;;;;2.78;2.03;;;;;;;19.81;68.93;96593.88;4966960;28;20624;-78
2022/09/08 04:09:01;;;;;;;2.50;1.92;;;;;;;19.76;69.37;96586.88;4983248;28;20190;-78
2022/09/08 04:11:26;;;;;;;3.80;2.35;;;;;;;19.73;69.61;96581.44;4933721;28;20286;-78
2022/09/08 04:13:52;;;;;;;2.85;2.10;;;;;;;19.85;68.87;96578.16;4954851;28;20642;-79
2022/09/08 04:16:17;;;;;;;2.38;2.17;;;;;;;19.89;68.87;96574.53;4938442;28;20314;-79
2022/09/08 04:18:44;;;;;;;1.88;1.65;;;;;;;19.88;68.82;96569.56;4953923;28;20194;-79
2022/09/08 04:21:10;;;;;;;2.00;1.65;;;;;;;19.98;68.34;96583.19;4964770;28;20209;-79
2022/09/08 04:23:36;;;;;;;3.70;2.05;;;;;;;19.94;68.35;96584.91;4953580;28;20657;-79
2022/09/08 04:26:08;;;;;;;2.40;1.65;;;;;;;19.80;68.58;96571.94;4969895;28;20201;-79
2022/09/08 04:28:34;;;;;;;1.45;1.30;;;;;;;19.81;68.67;96572.72;4951464;28;20307;-78
2022/09/08 04:31:09;;;;;;;3.13;1.92;;;;;;;19.67;69.23;96574.78;4953320;28;20319;-79
2022/09/08 04:33:35;;;;;;;1.95;1.80;;;;;;;19.72;68.66;96570.06;4962468;28;20125;-79
2022/09/08 04:36:18;;;;;;;2.75;1.42;;;;;;;19.53;69.70;96578.41;4986823;28;20193;-79
2022/09/08 04:38:44;;;;;;;2.20;1.48;;;;;;;19.59;68.90;96565.81;4960655;28;20158;-79
2022/09/08 04:41:14;;;;;;;2.45;1.55;;;;;;;19.48;68.91;96573.28;4950621;28;20321;-78
2022/09/08 04:43:40;;;;;;;1.42;1.20;;;;;;;19.58;69.09;96590.66;4959082;28;20119;-78
2022/09/08 04:46:07;;;;;;;1.35;1.17;;;;;;;19.55;68.72;96594.72;4936098;28;20192;-78
2022/09/08 04:48:34;;;;;;;1.98;1.55;;;;;;;19.49;68.96;96587.28;4953803;28;20203;-78
2022/09/08 04:51:00;;;;;;;2.05;1.45;;;;;;;19.51;68.26;96593.78;4948447;28;20177;-78
2022/09/08 04:53:27;;;;;;;2.42;1.67;;;;;;;19.32;69.37;96609.22;4962138;28;20223;-79
2022/09/08 04:55:53;;;;;;;2.00;1.75;;;;;;;19.31;69.73;96610.31;4953942;28;20282;-78
2022/09/08 04:58:19;;;;;;;3.30;1.10;;;;;;;19.34;68.85;96601.75;4950796;28;20549;-78
2022/09/08 05:00:45;;;;;;;1.80;1.15;;;;;;;19.37;68.80;96606.41;4958278;28;20311;-78
2022/09/08 05:03:11;;;;;;;1.55;1.10;;;;;;;19.33;68.82;96611.56;4961881;28;20177;-78
2022/09/08 05:05:36;;;;;;;1.10;1.05;;;;;;;19.28;69.13;96627.56;4946188;28;20196;-78
2022/09/08 05:08:02;;;;;;;1.65;1.08;;;;;;;19.17;69.45;96613.91;4969953;28;20285;-78
2022/09/08 05:10:27;;;;;;;2.25;1.30;;;;;;;19.24;68.76;96619.50;4952610;28;20274;-78
2022/09/08 05:12:54;;;;;;;2.25;1.20;;;;;;;19.24;68.58;96608.94;4964920;28;20762;-78
2022/09/08 05:15:22;;;;;;;2.15;1.42;;;;;;;19.19;69.36;96630.22;4933641;28;20306;-78
2022/09/08 05:17:48;;;;;;;1.60;1.50;;;;;;;19.13;69.77;96642.03;4948745;28;20256;-79
2022/09/08 05:20:14;;;;;;;2.05;1.33;;;;;;;19.11;69.66;96648.69;4952813;28;20655;-78
2022/09/08 05:22:39;;;;;;;2.30;1.42;;;;;;;19.07;69.57;96651.97;4951746;28;20671;-78
2022/09/08 05:25:06;;;;;;;5.00;2.08;;;;;;;19.13;69.62;96657.09;4983115;28;20196;-79
2022/09/08 05:27:31;;;;;;;2.97;1.60;;;;;;;19.07;69.81;96661.72;4950004;28;20109;-78
2022/09/08 05:29:56;;;;;;;1.98;1.10;;;;;;;18.98;69.68;96668.88;4957149;28;20178;-78
2022/09/08 05:32:22;;;;;;;2.42;1.30;;;;;;;18.96;69.63;96665.78;4953866;28;20169;-79
2022/09/08 05:34:47;;;;;;;2.45;1.00;;;;;;;18.89;69.88;96676.81;4932580;28;20174;-78
2022/09/08 05:37:12;;;;;;;2.40;1.27;;;;;;;18.94;70.31;96676.66;4949754;28;20679;-78
2022/09/08 05:39:38;;;;;;;1.80;0.88;;;;;;;18.92;69.80;96675.38;4950214;28;20260;-78
2022/09/08 05:42:04;;;;;;;0.80;0.70;;;;;;;18.83;69.32;96688.56;4949288;28;20294;-78
2022/09/08 05:44:30;;;;;;;1.27;1.10;;;;;;;18.83;69.34;96675.38;4969446;28;20296;-78
2022/09/08 05:46:55;;;;;;;0.82;0.80;;;;;;;18.92;68.98;96670.09;4962351;28;20273;-78
2022/09/08 05:49:21;;;;;;;1.55;1.00;;;;;;;19.02;68.87;96667.16;4968069;28;20707;-78
2022/09/08 05:51:47;;;;;;;1.90;1.33;;;;;;;19.01;67.87;96673.53;4949673;28;20194;-78
2022/09/08 05:54:12;;;;;;;1.27;0.73;;;;;;;18.97;68.72;96672.59;4969031;28;20205;-78
2022/09/08 05:56:38;;;;;;;1.58;1.25;;;;;;;19.06;68.82;96673.38;4968065;28;20199;-78
2022/09/08 05:59:03;;;;;;;1.77;1.25;;;;;;;19.10;68.47;96676.94;4935922;28;20196;-78
2022/09/08 06:01:31;;;;;;;2.05;1.17;;;;;;;19.00;68.50;96682.53;4969593;28;20211;-78
2022/09/08 06:03:57;;;;;;;1.35;1.20;;;;;;;19.02;68.33;96681.16;4980050;28;20685;-78
2022/09/08 06:06:23;;;;;;;2.80;1.42;;;;;;;19.01;68.78;96684.09;4966183;28;20209;-78
2022/09/08 06:08:48;;;;;;;2.15;2.05;;;;;;;18.96;68.91;96694.81;4917175;28;20639;-79
2022/09/08 06:11:14;;;;;;;2.92;2.13;;;;;;;19.01;68.47;96695.41;4932976;28;20175;-78
2022/09/08 06:13:39;;;;;;;1.95;1.50;;;;;;;19.08;68.21;96700.22;4956275;28;20839;-78
2022/09/08 06:16:13;;;;;;;3.05;2.30;;;;;;;19.00;68.39;96701.00;4947448;28;20212;-78
2022/09/08 06:18:43;;;;;;;2.83;2.10;;;;;;;19.14;68.24;96700.84;4978386;28;20205;-78
2022/09/08 06:21:18;;;;;;;2.50;2.08;;;;;;;19.01;68.53;96699.94;4969259;28;20178;-78
2022/09/08 06:23:47;;;;;;;2.67;2.47;;;;;;;18.98;68.28;96697.91;4935068;28;20117;-78
2022/09/08 06:26:27;;;;;;;3.10;2.50;;;;;;;18.99;68.66;96707.38;4939883;28;20698;-78
2022/09/08 06:29:08;;;;;;;2.90;2.13;;;;;;;19.00;68.74;96703.63;4949458;28;20161;-78
2022/09/08 06:31:36;;;;;;;4.00;3.03;;;;;;;19.16;68.76;96702.09;4949493;28;20221;-78
2022/09/08 06:34:08;;;;;;;3.40;2.80;;;;;;;19.14;68.76;96711.41;4973006;28;20607;-78
2022/09/08 06:36:46;;;;;;;3.78;3.10;;;;;;;19.04;69.07;96709.88;4963444;28;20200;-79
2022/09/08 06:39:23;;;;;;;3.78;3.22;;;;;;;19.01;68.92;96711.25;4971378;28;20320;-78
2022/09/08 06:41:54;;;;;;;4.28;2.95;;;;;;;19.08;69.01;96710.78;4932660;28;20204;-78
2022/09/08 06:44:26;;;;;;;4.47;3.05;;;;;;;19.16;68.85;96722.41;4951111;28;20281;-78
2022/09/08 06:46:52;;;;;;;5.20;3.35;;;;;;;19.18;68.89;96713.13;4953885;28;20250;-78
2022/09/08 06:49:17;;;;;;;4.88;3.28;;;;;;;19.21;68.84;96703.78;4968763;28;20202;-78
2022/09/08 06:51:51;;;;;;;5.20;3.28;;;;;;;19.09;68.89;96721.03;4949590;28;20527;-78
2022/09/08 06:54:53;;;;;;;4.27;3.30;;;;;;;18.93;69.52;96719.16;4959624;28;20423;-77
2022/09/08 06:57:25;;;;;;;4.68;3.88;;;;;;;19.02;69.61;96715.44;4951011;28;21122;-78
2022/09/08 07:00:12;;;;;;;3.53;3.17;;;;;;;19.03;69.65;96714.34;4955538;28;20258;-78
2022/09/08 07:02:51;;;;;;;4.72;3.20;;;;;;;19.06;69.38;96716.38;4950594;28;20370;-78
2022/09/08 07:05:41;;;;;;;4.47;2.90;;;;;;;19.17;69.88;96714.19;4956759;28;20621;-77
2022/09/08 07:08:31;;;;;;;3.78;3.10;;;;;;;19.26;68.78;96714.19;4968097;28;20241;-78
2022/09/08 07:11:04;;;;;;;4.68;3.72;;;;;;;19.23;69.45;96709.53;4968089;28;20205;-78
2022/09/08 07:13:42;;;;;;;4.53;3.30;;;;;;;19.15;69.77;96711.09;4941839;28;20188;-78
2022/09/08 07:16:29;;;;;;;3.92;3.38;;;;;;;19.28;69.60;96715.44;4938585;28;20644;-78
2022/09/08 07:19:16;;;;;;;3.90;3.47;;;;;;;19.39;69.45;96723.03;4984254;28;20613;-78
2022/09/08 07:21:48;;;;;;;4.00;2.63;;;;;;;19.36;69.26;96723.66;4943309;28;20277;-77
2022/09/08 07:24:16;;;;;;;4.03;3.13;;;;;;;19.47;69.04;96727.53;4949875;28;20290;-77
2022/09/08 07:26:55;;;;;;;4.47;2.70;;;;;;;19.24;70.01;96722.44;4948932;28;20254;-77
2022/09/08 07:29:33;;;;;;;3.13;2.60;;;;;;;19.47;68.98;96727.53;4950997;28;20208;-78
2022/09/08 07:32:00;;;;;;;2.95;2.60;;;;;;;19.54;67.96;96729.72;4932740;28;20289;-77
2022/09/08 07:34:33;;;;;;;3.83;2.35;;;;;;;19.38;68.78;96737.31;4933851;28;20250;-77
2022/09/08 07:37:13;;;;;;;3.95;2.45;;;;;;;19.51;68.78;96740.88;4948902;28;20247;-77
2022/09/08 07:40:02;;;;;;;3.30;2.15;;;;;;;19.49;68.45;96741.19;4933152;28;20278;-77
2022/09/08 07:42:28;;;;;;;3.28;2.22;;;;;;;19.55;68.54;96745.25;4949438;28;20204;-77
2022/09/08 07:44:57;;;;;;;2.90;2.58;;;;;;;19.31;68.66;96745.69;4956672;28;20195;-77
2022/09/08 07:47:30;;;;;;;2.50;2.30;;;;;;;19.42;68.39;96751.47;4951992;28;20165;-77
2022/09/08 07:50:17;;;;;;;4.97;2.65;;;;;;;19.33;68.66;96755.94;4970966;28;20331;-77
2022/09/08 07:52:46;;;;;;;5.05;1.92;;;;;;;19.26;68.31;96759.84;4989659;28;20282;-77
2022/09/08 07:55:39;;;;;;;2.25;2.05;;;;;;;19.19;69.09;96764.81;4971823;28;20184;-77
2022/09/08 07:58:17;;;;;;;3.72;1.95;;;;;;;19.23;69.21;96757.06;4982405;28;20338;-76
2022/09/08 08:00:45;;;;;;;2.00;1.70;;;;;;;19.45;68.13;96756.13;4972219;28;20281;-76
2022/09/08 08:03:38;;;;;;;1.98;1.30;;;;;;;19.30;68.22;96759.22;4989997;28;20194;-77
2022/09/08 08:06:11;;;;;;;2.00;1.27;;;;;;;19.12;68.69;96766.34;4973259;28;20199;-77
2022/09/08 08:08:48;;;;;;;1.48;1.15;;;;;;;19.40;67.30;96769.47;4972941;28;20683;-78
2022/09/08 08:11:18;;;;;;;2.05;1.17;;;;;;;19.31;68.14;96772.09;4990574;28;20156;-77
2022/09/08 08:13:55;;;;;;;1.15;1.02;;;;;;;19.35;67.78;96777.56;4973441;28;20206;-78
2022/09/08 08:16:33;;;;;;;1.60;0.93;;;;;;;19.26;68.00;96780.16;4971669;28;20719;-76
2022/09/08 08:19:17;;;;;;;1.65;0.90;;;;;;;19.28;67.42;96788.56;4940023;28;20203;-75
2022/09/08 08:21:56;;;;;;;2.35;1.45;;;;;;;19.35;67.64;96794.16;4971670;28;20202;-75
2022/09/08 08:24:31;;;;;;;4.07;1.08;;;;;;;19.59;68.12;96791.03;4971984;28;20739;-76
2022/09/08 08:27:09;;;;;;;1.95;0.88;;;;;;;19.57;67.34;96795.88;4955721;28;20324;-76
2022/09/08 08:29:38;;;;;;;2.70;0.85;;;;;;;19.67;66.86;96794.75;4972768;28;20278;-77
2022/09/08 08:32:10;;;;;;;1.25;0.63;;;;;;;19.62;67.77;96795.72;4970951;28;20245;-76
2022/09/08 08:35:20;;;;;;;1.10;0.88;;;;;;;19.62;66.47;96793.06;4972269;28;20279;-76
2022/09/08 08:37:49;;;;;;;1.17;0.57;;;;;;;19.86;65.40;96802.41;4974682;28;20185;-76
2022/09/08 08:40:36;;;;;;;1.52;0.57;;;;;;;19.71;64.48;96797.56;4956527;28;20261;-77
2022/09/08 08:43:38;;;;;;;1.45;0.60;;;;;;;19.72;64.63;96796.47;4971969;28;20693;-77
2022/09/08 08:46:19;;;;;;;2.20;0.70;;;;;;;19.93;64.70;96796.63;4971782;28;20195;-76
2022/09/08 08:49:15;;;;;;;1.88;0.75;;;;;;;19.98;66.08;96802.53;4972640;28;20284;-76
2022/09/08 08:52:08;;;;;;;0.75;0.75;;;;;;;20.00;63.59;96797.69;4989253;28;20363;-77
2022/09/08 08:54:49;;;;;;;1.23;0.60;;;;;;;20.22;64.39;96798.59;4972331;28;20678;-76
2022/09/08 08:57:33;;;;;;;1.77;0.70;;;;;;;20.11;64.14;96805.28;4989564;28;20183;-76
2022/09/08 09:00:18;;;;;;;1.05;0.68;;;;;;;20.11;64.32;96797.38;4955737;28;20113;-76
2022/09/08 09:03:02;;;;;;;1.00;0.90;;;;;;;20.09;64.72;96796.91;4968571;28;20192;-76
2022/09/08 09:05:58;;;;;;;1.55;0.70;;;;;;;19.95;64.23;96799.75;4952973;28;20274;-75
2022/09/08 09:08:57;;;;;;;0.82;0.63;;;;;;;19.77;64.86;96798.97;4987840;28;20249;-76
2022/09/08 09:11:55;;;;;;;1.38;0.50;;;;;;;19.83;63.90;96803.78;4987136;28;20241;-76
2022/09/08 09:14:41;;;;;;;3.58;0.50;;;;;;;19.81;64.00;96805.22;4979394;28;20283;-78
2022/09/08 09:17:22;;;;;;;5.28;0.80;;;;;;;19.79;64.64;96810.00;4971405;28;20739;-77
2022/09/08 09:20:13;;;;;;;0.85;0.50;;;;;;;19.81;65.09;96805.22;4987702;28;20152;-76
2022/09/08 09:22:52;;;;;;;0.95;0.47;;;;;;;19.73;64.92;96808.59;4988343;28;20223;-75
2022/09/08 09:25:29;;;;;;;1.42;0.60;;;;;;;19.59;64.82;96811.41;4954782;28;20287;-76
2022/09/08 09:28:01;;;;;;;1.30;0.60;;;;;;;19.74;65.74;96810.13;4987956;28;20273;-77
2022/09/08 09:30:43;;;;;;;2.35;0.75;;;;;;;19.51;65.57;96812.94;4971208;28;20103;-77
2022/09/08 09:33:27;;;;;;;3.17;0.45;;;;;;;19.71;64.77;96816.06;4969491;28;20278;-76
2022/09/08 09:35:55;;;;;;;3.40;0.60;;;;;;;19.83;65.01;96816.22;4989761;28;20172;-77
2022/09/08 09:38:56;;;;;;;1.95;0.70;;;;;;;19.85;65.18;96814.03;4988436;28;20184;-76
2022/09/08 09:41:34;;;;;;;2.63;0.80;;;;;;;20.05;65.07;96809.19;4940513;28;20602;-77
2022/09/08 09:44:10;;;;;;;2.75;1.02;;;;;;;19.98;65.52;96805.16;4969850;28;20202;-76
2022/09/08 09:47:09;;;;;;;1.50;0.80;;;;;;;19.98;65.86;96807.81;4970705;28;20348;-77
2022/09/08 09:50:12;;;;;;;1.10;0.60;;;;;;;20.07;66.20;96802.50;4987659;28;20172;-76
2022/09/08 09:52:55;;;;;;;2.38;0.60;;;;;;;20.40;64.04;96804.56;4987891;28;20157;-77
2022/09/08 09:55:45;;;;;;;3.83;0.60;;;;;;;20.57;64.56;96793.91;4971189;28;20198;-76
2022/09/08 09:58:40;;;;;;;1.25;0.65;;;;;;;20.85;62.02;96806.72;4969664;28;20316;-77
2022/09/08 10:01:18;;;;;;;1.02;0.55;;;;;;;21.00;62.45;96801.97;4956320;28;20736;-76
2022/09/08 10:04:00;;;;;;;1.95;0.47;;;;;;;21.14;62.51;96797.97;4950166;28;20343;-77
2022/09/08 10:06:36;;;;;;;1.45;0.30;;;;;;;21.24;61.38;96796.81;4934721;28;20279;-77
2022/09/08 10:09:22;;;;;;;0.60;0.47;;;;;;;21.35;60.44;96804.38;4949702;28;20327;-77
2022/09/08 10:12:20;;;;;;;0.80;0.40;;;;;;;21.65;58.67;96799.81;4948989;28;20258;-77
2022/09/08 10:15:07;;;;;;;2.00;0.63;;;;;;;21.91;59.36;96798.78;4896896;28;20196;-76
2022/09/08 10:18:21;;;;;;;2.58;0.40;;;;;;;22.23;58.83;96797.19;4950024;28;20219;-77
2022/09/08 10:20:55;;;;;;;2.60;0.63;;;;;;;22.64;55.53;96808.75;4959161;28;20857;-78
2022/09/08 10:23:58;;;;;;;2.15;0.70;;;;;;;22.84;57.48;96801.75;4967226;28;20191;-76
2022/09/08 10:26:39;;;;;;;1.58;0.32;;;;;;;22.94;55.70;96798.66;4949140;28;20203;-77
2022/09/08 10:29:19;;;;;;;1.73;0.95;;;;;;;22.63;55.08;96804.53;4933746;28;20197;-78
2022/09/08 10:32:03;;;;;;;2.60;1.00;;;;;;;22.56;56.12;96807.75;4948774;28;20273;-77
2022/09/08 10:34:38;;;;;;;2.55;0.50;;;;;;;22.38;55.88;96807.19;4967747;28;20639;-78
2022/09/08 10:37:06;;;;;;;1.45;0.38;;;;;;;22.46;54.99;96808.19;4966944;28;20586;-77
2022/09/08 10:39:51;;;;;;;0.68;0.50;;;;;;;22.30;55.59;96808.06;4967395;28;20188;-77
2022/09/08 10:42:35;;;;;;;2.72;0.40;;;;;;;22.20;53.88;96806.56;4948921;28;20101;-76
2022/09/08 10:45:18;;;;;;;1.03;0.50;;;;;;;22.46;52.06;96802.88;4956945;28;20327;-76
2022/09/08 10:48:11;;;;;;;2.45;0.40;;;;;;;22.71;52.41;96805.56;4936105;28;20168;-76
2022/09/08 10:50:49;;;;;;;1.27;0.40;;;;;;;22.61;52.18;96798.81;4981969;28;20094;-77
2022/09/08 10:53:23;;;;;;;1.60;0.40;;;;;;;22.80;51.03;96806.19;4951555;28;20676;-76
2022/09/08 10:56:05;;;;;;;1.67;0.40;;;;;;;22.60;54.09;96802.56;4988175;28;20254;-78
2022/09/08 10:59:08;;;;;;;1.00;0.30;;;;;;;22.53;53.03;96803.09;4952038;28;20190;-77
2022/09/08 11:01:36;;;;;;;1.00;0.40;;;;;;;23.15;54.15;96800.41;4987398;28;20591;-77
2022/09/08 11:04:34;;;;;;;2.88;1.27;;;;;;;23.64;52.00;96797.63;4966750;28;20203;-77
2022/09/08 11:07:19;;;;;;;1.20;0.47;;;;;;;23.36;51.35;96794.97;4933282;28;20641;-78
2022/09/08 11:10:08;;;;;;;1.20;0.85;;;;;;;23.48;50.39;96802.13;4949713;28;20642;-78
2022/09/08 11:12:36;;;;;;;1.92;0.60;;;;;;;23.26;50.25;96806.06;4929264;28;20608;-78
2022/09/08 11:15:33;;;;;;;1.55;1.10;;;;;;;23.00;50.66;96813.25;4966530;28;20184;-78
2022/09/08 11:18:18;;;;;;;1.73;0.45;;;;;;;23.17;53.74;96803.53;4949160;28;20101;-77
2022/09/08 11:20:50;;;;;;;4.13;0.60;;;;;;;23.44;51.81;96810.00;4949817;28;20190;-77
2022/09/08 11:23:37;;;;;;;1.30;0.73;;;;;;;23.20;51.57;96808.16;4947662;28;20246;-77
2022/09/08 11:26:08;;;;;;;1.20;0.63;;;;;;;23.15;52.33;96805.72;4964702;28;20283;-78
2022/09/08 11:28:50;;;;;;;1.75;0.50;;;;;;;23.29;52.98;96808.06;4964686;28;20166;-77
2022/09/08 11:31:28;;;;;;;3.35;0.70;;;;;;;23.47;51.94;96821.81;4948702;28;20281;-77
2022/09/08 11:34:11;;;;;;;1.20;0.43;;;;;;;23.21;53.13;96817.69;4964717;28;20298;-77
2022/09/08 11:36:37;;;;;;;1.48;0.60;;;;;;;23.20;53.89;96818.78;4949149;28;20351;-77
2022/09/08 11:39:14;;;;;;;1.77;0.52;;;;;;;23.27;51.35;96808.38;4966339;28;20232;-78
2022/09/08 11:42:02;;;;;;;2.78;0.80;;;;;;;23.60;49.73;96806.63;4947802;28;20299;-78
2022/09/08 11:44:30;;;;;;;1.52;0.50;;;;;;;24.30;49.81;96806.19;4952803;28;20185;-77
2022/09/08 11:47:05;;;;;;;2.95;0.75;;;;;;;24.67;47.66;96811.25;4985805;28;20633;-78
2022/09/08 11:49:33;;;;;;;2.15;0.90;;;;;;;24.78;49.82;96801.63;4967718;28;20597;-77
2022/09/08 11:52:21;;;;;;;2.53;0.82;;;;;;;24.70;46.76;96815.88;4968087;28;20259;-78
2022/09/08 11:55:41;;;;;;;1.38;0.80;;;;;;;24.01;48.16;96805.47;4968878;28;20187;-76
2022/09/08 11:58:26;;;;;;;2.70;1.02;;;;;;;24.35;49.46;96805.13;4885213;28;20187;-77
2022/09/08 12:01:17;;;;;;;4.10;1.08;;;;;;;24.04;49.89;96798.66;4985585;28;20232;-78
2022/09/08 12:04:00;;;;;;;2.35;0.80;;;;;;;23.69;51.43;96794.72;4967406;28;20255;-77
2022/09/08 12:06:42;;;;;;;1.13;0.70;;;;;;;23.69;50.70;96794.72;4967598;28;20278;-77
2022/09/08 12:09:17;;;;;;;2.15;0.90;;;;;;;23.41;51.52;96796.59;4967186;28;20104;-77
2022/09/08 12:12:00;;;;;;;2.28;0.85;;;;;;;23.35;50.77;96801.38;4967151;28;20294;-77